sensor_id;sensor_type;location;lat;lon;timestamp;pressure;altitude;pressure_sealevel;temperature;humidity
64141;BME280;50436;50.618;7.932;2022-10-17T00:00:06;96933.94;;;13.30;100.00
64141;BME280;50436;50.618;7.932;2022-10-17T00:02:56;96936.28;;;13.22;100.00
64141;BME280;50436;50.618;7.932;2022-10-17T00:05:44;96925.72;;;13.15;100.00
64141;BME280;50436;50.618;7.932;2022-10-17T00:08:30;96938.31;;;13.15;100.00
64141;BME280;50436;50.618;7.932;2022-10-17T00:11:19;96935.63;;;13.15;100.00
64141;BME280;50436;50.618;7.932;2022-10-17T00:14:05;96939.38;;;13.14;100.00
64141;BME280;50436;50.618;7.932;2022-10-17T00:16:51;96943.66;;;13.09;100.00
64141;BME280;50436;50.618;7.932;2022-10-17T00:19:37;96945.19;;;13.05;100.00
64141;BME280;50436;50.618;7.932;2022-10-17T00:22:22;96932.22;;;12.97;100.00
64141;BME280;50436;50.618;7.932;2022-10-17T00:25:09;96947.28;;;12.98;100.00
64141;BME280;50436;50.618;7.932;2022-10-17T00:27:54;96950.72;;;12.94;100.00
64141;BME280;50436;50.618;7.932;2022-10-17T00:30:40;96953.16;;;12.95;100.00
64141;BME280;50436;50.618;7.932;2022-10-17T00:33:27;96950.47;;;12.95;100.00
64141;BME280;50436;50.618;7.932;2022-10-17T00:36:16;96962.28;;;12.94;100.00
64141;BME280;50436;50.618;7.932;2022-10-17T00:39:02;96970.91;;;12.96;100.00
64141;BME280;50436;50.618;7.932;2022-10-17T00:41:48;96959.34;;;12.96;100.00
64141;BME280;50436;50.618;7.932;2022-10-17T00:47:21;96966.06;;;12.98;100.00
64141;BME280;50436;50.618;7.932;2022-10-17T00:50:08;96975.81;;;13.04;100.00
64141;BME280;50436;50.618;7.932;2022-10-17T00:52:59;96964.28;;;13.04;100.00
64141;BME280;50436;50.618;7.932;2022-10-17T00:55:50;96968.28;;;13.01;100.00
64141;BME280;50436;50.618;7.932;2022-10-17T00:58:38;96964.28;;;13.04;100.00
64141;BME280;50436;50.618;7.932;2022-10-17T01:01:24;96970.38;;;12.99;100.00
64141;BME280;50436;50.618;7.932;2022-10-17T01:04:10;96967.94;;;12.98;100.00
64141;BME280;50436;50.618;7.932;2022-10-17T01:06:58;96970.91;;;12.96;100.00
64141;BME280;50436;50.618;7.932;2022-10-17T01:09:45;96965.53;;;12.96;100.00
64141;BME280;50436;50.618;7.932;2022-10-17T01:12:43;96967.16;;;12.97;100.00
64141;BME280;50436;50.618;7.932;2022-10-17T01:15:55;96966.84;;;12.94;100.00
64141;BME280;50436;50.618;7.932;2022-10-17T01:18:54;96969.28;;;12.95;100.00
64141;BME280;50436;50.618;7.932;2022-10-17T01:21:51;96965.00;;;12.99;100.00
64141;BME280;50436;50.618;7.932;2022-10-17T01:25:17;96969.34;;;13.00;100.00
64141;BME280;50436;50.618;7.932;2022-10-17T01:31:11;96976.53;;;12.95;100.00
64141;BME280;50436;50.618;7.932;2022-10-17T01:34:18;96969.47;;;12.89;100.00
64141;BME280;50436;50.618;7.932;2022-10-17T01:40:08;96962.16;;;12.84;100.00
64141;BME280;50436;50.618;7.932;2022-10-17T01:43:00;96965.09;;;12.82;100.00
64141;BME280;50436;50.618;7.932;2022-10-17T01:45:52;96954.59;;;12.81;100.00
64141;BME280;50436;50.618;7.932;2022-10-17T01:48:41;96958.34;;;12.80;100.00
64141;BME280;50436;50.618;7.932;2022-10-17T01:51:48;96963.41;;;12.76;100.00
64141;BME280;50436;50.618;7.932;2022-10-17T01:54:45;96961.97;;;12.69;100.00
64141;BME280;50436;50.618;7.932;2022-10-17T01:57:37;96964.66;;;12.69;100.00
64141;BME280;50436;50.618;7.932;2022-10-17T02:00:26;96956.53;;;12.64;100.00
64141;BME280;50436;50.618;7.932;2022-10-17T02:03:16;96967.03;;;12.65;100.00
64141;BME280;50436;50.618;7.932;2022-10-17T02:06:03;96960.28;;;12.63;100.00
64141;BME280;50436;50.618;7.932;2022-10-17T02:08:50;96961.66;;;12.65;100.00
64141;BME280;50436;50.618;7.932;2022-10-17T02:11:36;96954.75;;;12.69;100.00
64141;BME280;50436;50.618;7.932;2022-10-17T02:20:59;96964.78;;;12.79;100.00
64141;BME280;50436;50.618;7.932;2022-10-17T02:30:10;96960.78;;;12.81;100.00
64141;BME280;50436;50.618;7.932;2022-10-17T02:33:02;96962.09;;;12.79;100.00
64141;BME280;50436;50.618;7.932;2022-10-17T02:35:53;96962.84;;;12.74;100.00
64141;BME280;50436;50.618;7.932;2022-10-17T02:38:42;96961.53;;;12.77;100.00
64141;BME280;50436;50.618;7.932;2022-10-17T02:41:31;96964.22;;;12.77;100.00
64141;BME280;50436;50.618;7.932;2022-10-17T02:44:19;96961.03;;;12.80;100.00
64141;BME280;50436;50.618;7.932;2022-10-17T02:50:12;96958.16;;;12.87;100.00
64141;BME280;50436;50.618;7.932;2022-10-17T02:53:03;96951.47;;;12.89;100.00
64141;BME280;50436;50.618;7.932;2022-10-17T02:55:56;96959.03;;;12.92;100.00
64141;BME280;50436;50.618;7.932;2022-10-17T02:58:48;96965.53;;;12.96;100.00
64141;BME280;50436;50.618;7.932;2022-10-17T03:01:35;96967.66;;;12.94;100.00
64141;BME280;50436;50.618;7.932;2022-10-17T03:04:22;96965.72;;;12.90;100.00
64141;BME280;50436;50.618;7.932;2022-10-17T03:07:08;96962.47;;;12.88;100.00
64141;BME280;50436;50.618;7.932;2022-10-17T03:09:53;96970.53;;;12.88;100.00
64141;BME280;50436;50.618;7.932;2022-10-17T03:12:39;96969.97;;;12.86;100.00
64141;BME280;50436;50.618;7.932;2022-10-17T03:15:26;96968.03;;;12.81;100.00
64141;BME280;50436;50.618;7.932;2022-10-17T03:18:12;96971.78;;;12.80;100.00
64141;BME280;50436;50.618;7.932;2022-10-17T03:20:58;96964.47;;;12.75;100.00
64141;BME280;50436;50.618;7.932;2022-10-17T03:23:44;96972.28;;;12.77;100.00
64141;BME280;50436;50.618;7.932;2022-10-17T03:26:32;96971.97;;;12.73;100.00
64141;BME280;50436;50.618;7.932;2022-10-17T03:29:18;96967.09;;;12.70;100.00
64141;BME280;50436;50.618;7.932;2022-10-17T03:32:04;96969.53;;;12.72;100.00
64141;BME280;50436;50.618;7.932;2022-10-17T03:34:50;96967.41;;;12.74;100.00
64141;BME280;50436;50.618;7.932;2022-10-17T03:37:36;96960.47;;;12.78;100.00
64141;BME280;50436;50.618;7.932;2022-10-17T03:40:22;96964.78;;;12.79;100.00
64141;BME280;50436;50.618;7.932;2022-10-17T03:43:08;96966.41;;;12.80;100.00
64141;BME280;50436;50.618;7.932;2022-10-17T03:45:57;96962.66;;;12.81;100.00
64141;BME280;50436;50.618;7.932;2022-10-17T03:48:43;96973.09;;;12.77;100.00
64141;BME280;50436;50.618;7.932;2022-10-17T03:51:31;96967.16;;;12.75;100.00
64141;BME280;50436;50.618;7.932;2022-10-17T03:54:22;96973.03;;;12.72;100.00
64141;BME280;50436;50.618;7.932;2022-10-17T03:57:09;96970.59;;;12.71;100.00
64141;BME280;50436;50.618;7.932;2022-10-17T03:59:55;96973.75;;;12.68;100.00
64141;BME280;50436;50.618;7.932;2022-10-17T04:02:41;96981.59;;;12.69;100.00
64141;BME280;50436;50.618;7.932;2022-10-17T04:05:35;96978.00;;;12.64;100.00
64141;BME280;50436;50.618;7.932;2022-10-17T04:08:21;96978.75;;;12.59;100.00
64141;BME280;50436;50.618;7.932;2022-10-17T04:11:22;96981.69;;;12.58;100.00
64141;BME280;50436;50.618;7.932;2022-10-17T04:14:09;96987.63;;;12.60;100.00
64141;BME280;50436;50.618;7.932;2022-10-17T04:16:56;96978.75;;;12.59;100.00
64141;BME280;50436;50.618;7.932;2022-10-17T04:19:41;96980.63;;;12.59;100.00
64141;BME280;50436;50.618;7.932;2022-10-17T04:22:28;96978.53;;;12.61;100.00
64141;BME280;50436;50.618;7.932;2022-10-17T04:25:13;96988.50;;;12.65;100.00
64141;BME280;50436;50.618;7.932;2022-10-17T04:28:03;97007.53;;;12.64;100.00
64141;BME280;50436;50.618;7.932;2022-10-17T04:31:06;97010.75;;;12.61;100.00
64141;BME280;50436;50.618;7.932;2022-10-17T04:33:59;97014.47;;;12.60;100.00
64141;BME280;50436;50.618;7.932;2022-10-17T04:36:45;97020.22;;;12.68;100.00
64141;BME280;50436;50.618;7.932;2022-10-17T04:39:32;97018.94;;;12.71;100.00
64141;BME280;50436;50.618;7.932;2022-10-17T04:42:18;97004.69;;;12.70;100.00
64141;BME280;50436;50.618;7.932;2022-10-17T04:45:05;97019.66;;;12.66;100.00
64141;BME280;50436;50.618;7.932;2022-10-17T04:47:53;97010.16;;;12.59;100.00
64141;BME280;50436;50.618;7.932;2022-10-17T04:50:40;97020.34;;;12.57;100.00
64141;BME280;50436;50.618;7.932;2022-10-17T04:53:48;97014.03;;;12.46;100.00
64141;BME280;50436;50.618;7.932;2022-10-17T04:56:35;97013.84;;;12.36;100.00
64141;BME280;50436;50.618;7.932;2022-10-17T04:59:21;96997.44;;;12.32;100.00
64141;BME280;50436;50.618;7.932;2022-10-17T05:02:12;97000.59;;;12.29;100.00
64141;BME280;50436;50.618;7.932;2022-10-17T05:04:58;97001.34;;;12.24;100.00
64141;BME280;50436;50.618;7.932;2022-10-17T05:07:44;97012.25;;;12.18;100.00
64141;BME280;50436;50.618;7.932;2022-10-17T05:10:41;97015.34;;;12.10;100.00
64141;BME280;50436;50.618;7.932;2022-10-17T05:13:27;97010.38;;;12.02;100.00
64141;BME280;50436;50.618;7.932;2022-10-17T05:16:13;97019.50;;;12.01;100.00
64141;BME280;50436;50.618;7.932;2022-10-17T05:19:00;97010.88;;;11.98;100.00
64141;BME280;50436;50.618;7.932;2022-10-17T05:21:51;97008.78;;;12.01;100.00
64141;BME280;50436;50.618;7.932;2022-10-17T05:24:37;97004.47;;;11.99;100.00
64141;BME280;50436;50.618;7.932;2022-10-17T05:27:22;97009.25;;;11.97;100.00
64141;BME280;50436;50.618;7.932;2022-10-17T05:30:09;97007.56;;;11.91;100.00
64141;BME280;50436;50.618;7.932;2022-10-17T05:32:56;97009.97;;;11.93;100.00
64141;BME280;50436;50.618;7.932;2022-10-17T05:35:42;97011.84;;;11.92;100.00
64141;BME280;50436;50.618;7.932;2022-10-17T05:38:28;97012.91;;;11.91;100.00
64141;BME280;50436;50.618;7.932;2022-10-17T05:41:14;97011.91;;;11.97;100.00
64141;BME280;50436;50.618;7.932;2022-10-17T05:44:01;97003.41;;;12.01;100.00
64141;BME280;50436;50.618;7.932;2022-10-17T05:46:57;97001.53;;;12.01;100.00
64141;BME280;50436;50.618;7.932;2022-10-17T05:49:43;96998.59;;;12.03;100.00
64141;BME280;50436;50.618;7.932;2022-10-17T05:52:29;96992.44;;;12.02;100.00
64141;BME280;50436;50.618;7.932;2022-10-17T05:55:31;97009.31;;;12.03;100.00
64141;BME280;50436;50.618;7.932;2022-10-17T05:58:17;97003.16;;;12.02;100.00
64141;BME280;50436;50.618;7.932;2022-10-17T06:01:07;97002.34;;;12.02;100.00
64141;BME280;50436;50.618;7.932;2022-10-17T06:03:53;96993.22;;;12.03;100.00
64141;BME280;50436;50.618;7.932;2022-10-17T06:06:39;97005.59;;;12.04;100.00
64141;BME280;50436;50.618;7.932;2022-10-17T06:09:25;96999.97;;;12.05;100.00
64141;BME280;50436;50.618;7.932;2022-10-17T06:12:13;97003.81;;;12.09;100.00
64141;BME280;50436;50.618;7.932;2022-10-17T06:15:02;97010.63;;;12.17;100.00
64141;BME280;50436;50.618;7.932;2022-10-17T06:17:48;97005.25;;;12.17;100.00
64141;BME280;50436;50.618;7.932;2022-10-17T06:20:35;97009.06;;;12.21;100.00
64141;BME280;50436;50.618;7.932;2022-10-17T06:23:21;97009.31;;;12.19;100.00
64141;BME280;50436;50.618;7.932;2022-10-17T06:26:19;97002.97;;;12.25;100.00
64141;BME280;50436;50.618;7.932;2022-10-17T06:29:05;97017.03;;;12.33;100.00
64141;BME280;50436;50.618;7.932;2022-10-17T06:31:55;97016.16;;;12.27;100.00
64141;BME280;50436;50.618;7.932;2022-10-17T06:34:40;97039.88;;;12.35;100.00
64141;BME280;50436;50.618;7.932;2022-10-17T06:37:30;97044.19;;;12.36;100.00
64141;BME280;50436;50.618;7.932;2022-10-17T06:40:17;97053.38;;;12.40;100.00
64141;BME280;50436;50.618;7.932;2022-10-17T06:43:04;97033.44;;;12.36;100.00
64141;BME280;50436;50.618;7.932;2022-10-17T06:46:17;97045.41;;;12.45;100.00
64141;BME280;50436;50.618;7.932;2022-10-17T06:49:14;97040.09;;;12.50;100.00
64141;BME280;50436;50.618;7.932;2022-10-17T06:52:26;97039.94;;;12.57;100.00
64141;BME280;50436;50.618;7.932;2022-10-17T06:55:31;97046.75;;;12.65;100.00
64141;BME280;50436;50.618;7.932;2022-10-17T06:58:38;97055.44;;;12.72;100.00
64141;BME280;50436;50.618;7.932;2022-10-17T07:01:41;97059.59;;;12.79;100.00
64141;BME280;50436;50.618;7.932;2022-10-17T07:04:27;97059.41;;;12.86;100.00
64141;BME280;50436;50.618;7.932;2022-10-17T07:07:13;97060.03;;;12.93;100.00
64141;BME280;50436;50.618;7.932;2022-10-17T07:09:59;97049.69;;;13.02;100.00
64141;BME280;50436;50.618;7.932;2022-10-17T07:12:45;97055.50;;;13.16;100.00
64141;BME280;50436;50.618;7.932;2022-10-17T07:15:33;97069.34;;;13.24;100.00
64141;BME280;50436;50.618;7.932;2022-10-17T07:18:19;97067.31;;;13.36;100.00
64141;BME280;50436;50.618;7.932;2022-10-17T07:21:06;97065.56;;;13.47;100.00
64141;BME280;50436;50.618;7.932;2022-10-17T07:23:53;97076.44;;;13.57;100.00
64141;BME280;50436;50.618;7.932;2022-10-17T07:26:40;97073.84;;;13.68;100.00
64141;BME280;50436;50.618;7.932;2022-10-17T07:29:26;97071.28;;;13.78;100.00
64141;BME280;50436;50.618;7.932;2022-10-17T07:32:27;97079.44;;;13.88;100.00
64141;BME280;50436;50.618;7.932;2022-10-17T07:35:17;97064.47;;;13.97;100.00
64141;BME280;50436;50.618;7.932;2022-10-17T07:38:03;97069.09;;;14.07;100.00
64141;BME280;50436;50.618;7.932;2022-10-17T07:40:58;97089.47;;;14.25;100.00
64141;BME280;50436;50.618;7.932;2022-10-17T07:43:45;97086.84;;;14.35;100.00
64141;BME280;50436;50.618;7.932;2022-10-17T07:46:32;97088.00;;;14.44;100.00
64141;BME280;50436;50.618;7.932;2022-10-17T07:49:18;97082.22;;;14.57;100.00
64141;BME280;50436;50.618;7.932;2022-10-17T07:52:04;97091.97;;;14.63;100.00
64141;BME280;50436;50.618;7.932;2022-10-17T07:54:50;97090.94;;;14.74;100.00
64141;BME280;50436;50.618;7.932;2022-10-17T07:57:36;97080.97;;;14.75;100.00
64141;BME280;50436;50.618;7.932;2022-10-17T08:00:22;97093.97;;;14.83;100.00
64141;BME280;50436;50.618;7.932;2022-10-17T08:03:09;97097.19;;;14.85;100.00
64141;BME280;50436;50.618;7.932;2022-10-17T08:05:59;97096.97;;;14.92;100.00
64141;BME280;50436;50.618;7.932;2022-10-17T08:08:45;97088.66;;;14.98;100.00
64141;BME280;50436;50.618;7.932;2022-10-17T08:11:31;97084.66;;;15.06;100.00
64141;BME280;50436;50.618;7.932;2022-10-17T08:14:17;97072.03;;;15.12;100.00
64141;BME280;50436;50.618;7.932;2022-10-17T08:17:03;97089.28;;;15.16;100.00
64141;BME280;50436;50.618;7.932;2022-10-17T08:19:49;97076.66;;;15.21;100.00
64141;BME280;50436;50.618;7.932;2022-10-17T08:22:34;97088.28;;;15.27;100.00
64141;BME280;50436;50.618;7.932;2022-10-17T08:25:21;97090.19;;;15.37;100.00
64141;BME280;50436;50.618;7.932;2022-10-17T08:28:07;97084.03;;;15.46;100.00
64141;BME280;50436;50.618;7.932;2022-10-17T08:31:01;97084.34;;;15.60;100.00
64141;BME280;50436;50.618;7.932;2022-10-17T08:33:49;97082.78;;;15.69;100.00
64141;BME280;50436;50.618;7.932;2022-10-17T08:36:35;97093.59;;;15.79;100.00
64141;BME280;50436;50.618;7.932;2022-10-17T08:39:21;97083.13;;;15.88;100.00
64141;BME280;50436;50.618;7.932;2022-10-17T08:45:11;97080.44;;;16.08;100.00
64141;BME280;50436;50.618;7.932;2022-10-17T08:48:04;97086.91;;;16.02;100.00
64141;BME280;50436;50.618;7.932;2022-10-17T08:51:16;97084.75;;;16.14;100.00
64141;BME280;50436;50.618;7.932;2022-10-17T08:54:19;97075.88;;;16.34;100.00
64141;BME280;50436;50.618;7.932;2022-10-17T08:57:13;97097.44;;;16.50;100.00
64141;BME280;50436;50.618;7.932;2022-10-17T09:00:00;97087.72;;;16.64;100.00
64141;BME280;50436;50.618;7.932;2022-10-17T09:06:12;97096.91;;;16.93;100.00
64141;BME280;50436;50.618;7.932;2022-10-17T09:21:15;97090.97;;;16.91;100.00
64141;BME280;50436;50.618;7.932;2022-10-17T09:24:04;97113.28;;;17.38;100.00
64141;BME280;50436;50.618;7.932;2022-10-17T09:26:55;97115.81;;;17.84;100.00
64141;BME280;50436;50.618;7.932;2022-10-17T09:29:43;97114.25;;;18.22;100.00
64141;BME280;50436;50.618;7.932;2022-10-17T09:32:30;97115.84;;;18.62;100.00
64141;BME280;50436;50.618;7.932;2022-10-17T09:35:17;97113.78;;;18.44;100.00
64141;BME280;50436;50.618;7.932;2022-10-17T09:38:04;97111.50;;;18.27;100.00
64141;BME280;50436;50.618;7.932;2022-10-17T09:40:59;97115.97;;;18.07;100.00
64141;BME280;50436;50.618;7.932;2022-10-17T09:43:46;97127.97;;;17.91;100.00
64141;BME280;50436;50.618;7.932;2022-10-17T09:46:35;97126.34;;;17.90;100.00
64141;BME280;50436;50.618;7.932;2022-10-17T09:49:32;97128.97;;;18.05;100.00
64141;BME280;50436;50.618;7.932;2022-10-17T09:52:24;97123.69;;;20.12;100.00
64141;BME280;50436;50.618;7.932;2022-10-17T09:55:25;97106.03;;;22.09;100.00
64141;BME280;50436;50.618;7.932;2022-10-17T09:58:14;97126.03;;;23.39;100.00
64141;BME280;50436;50.618;7.932;2022-10-17T10:01:23;97123.56;;;24.34;100.00
64141;BME280;50436;50.618;7.932;2022-10-17T10:04:15;97142.00;;;23.54;100.00
64141;BME280;50436;50.618;7.932;2022-10-17T10:07:04;97141.22;;;24.97;94.78
64141;BME280;50436;50.618;7.932;2022-10-17T10:09:51;97139.38;;;26.62;82.21
64141;BME280;50436;50.618;7.932;2022-10-17T10:12:38;97134.03;;;27.57;74.41
64141;BME280;50436;50.618;7.932;2022-10-17T10:15:33;97126.66;;;26.28;80.13
64141;BME280;50436;50.618;7.932;2022-10-17T10:21:16;97130.72;;;26.52;85.58
64141;BME280;50436;50.618;7.932;2022-10-17T10:24:11;97129.41;;;26.28;81.09
64141;BME280;50436;50.618;7.932;2022-10-17T10:27:00;97143.47;;;26.27;85.06
64141;BME280;50436;50.618;7.932;2022-10-17T10:29:50;97137.06;;;26.23;78.99
64141;BME280;50436;50.618;7.932;2022-10-17T10:32:37;97146.22;;;26.27;81.02
64141;BME280;50436;50.618;7.932;2022-10-17T10:35:30;97154.47;;;25.97;85.94
64141;BME280;50436;50.618;7.932;2022-10-17T10:38:16;97164.78;;;24.46;92.94
64141;BME280;50436;50.618;7.932;2022-10-17T10:41:07;97171.50;;;25.00;91.22
64141;BME280;50436;50.618;7.932;2022-10-17T10:43:54;97168.00;;;24.39;95.75
64141;BME280;50436;50.618;7.932;2022-10-17T10:46:40;97161.59;;;25.90;86.18
64141;BME280;50436;50.618;7.932;2022-10-17T10:49:31;97157.78;;;26.95;74.98
64141;BME280;50436;50.618;7.932;2022-10-17T10:55:55;97155.50;;;25.46;85.42
64141;BME280;50436;50.618;7.932;2022-10-17T11:01:50;97152.44;;;28.54;62.88
64141;BME280;50436;50.618;7.932;2022-10-17T11:04:44;97163.16;;;28.19;70.33
64141;BME280;50436;50.618;7.932;2022-10-17T11:07:37;97145.13;;;29.74;56.64
64141;BME280;50436;50.618;7.932;2022-10-17T11:23:22;97171.19;;;28.12;64.43
64141;BME280;50436;50.618;7.932;2022-10-17T11:26:27;97164.94;;;31.43;46.81
64141;BME280;50436;50.618;7.932;2022-10-17T11:29:13;97159.56;;;33.09;41.14
64141;BME280;50436;50.618;7.932;2022-10-17T11:32:12;97166.50;;;34.11;37.08
64141;BME280;50436;50.618;7.932;2022-10-17T11:35:04;97176.94;;;32.76;40.45
64141;BME280;50436;50.618;7.932;2022-10-17T11:38:20;97168.69;;;32.49;40.50
64141;BME280;50436;50.618;7.932;2022-10-17T11:41:12;97184.47;;;31.96;42.60
64141;BME280;50436;50.618;7.932;2022-10-17T11:44:04;97177.38;;;32.48;39.59
64141;BME280;50436;50.618;7.932;2022-10-17T11:46:56;97177.03;;;31.77;44.58
64141;BME280;50436;50.618;7.932;2022-10-17T11:50:15;97191.59;;;30.38;45.38
64141;BME280;50436;50.618;7.932;2022-10-17T11:53:23;97205.09;;;28.52;58.31
64141;BME280;50436;50.618;7.932;2022-10-17T11:56:09;97202.81;;;28.18;64.45
64141;BME280;50436;50.618;7.932;2022-10-17T12:02:26;97202.31;;;28.65;56.72
64141;BME280;50436;50.618;7.932;2022-10-17T12:05:37;97204.94;;;28.73;56.29
64141;BME280;50436;50.618;7.932;2022-10-17T12:08:48;97192.47;;;30.97;47.16
64141;BME280;50436;50.618;7.932;2022-10-17T12:11:54;97191.34;;;31.82;44.43
64141;BME280;50436;50.618;7.932;2022-10-17T12:14:46;97202.97;;;30.52;46.29
64141;BME280;50436;50.618;7.932;2022-10-17T12:17:33;97203.28;;;32.89;42.48
64141;BME280;50436;50.618;7.932;2022-10-17T12:20:29;97197.88;;;33.37;37.88
64141;BME280;50436;50.618;7.932;2022-10-17T12:26:04;97207.09;;;28.80;57.05
64141;BME280;50436;50.618;7.932;2022-10-17T12:28:50;97214.41;;;28.36;61.51
64141;BME280;50436;50.618;7.932;2022-10-17T12:31:36;97198.13;;;30.14;53.12
64141;BME280;50436;50.618;7.932;2022-10-17T12:34:23;97197.72;;;30.83;50.14
64141;BME280;50436;50.618;7.932;2022-10-17T12:37:10;97204.84;;;31.03;44.84
64141;BME280;50436;50.618;7.932;2022-10-17T12:39:56;97214.38;;;27.99;60.56
64141;BME280;50436;50.618;7.932;2022-10-17T12:42:47;97211.91;;;28.83;57.61
64141;BME280;50436;50.618;7.932;2022-10-17T12:51:23;97190.13;;;31.80;46.85
64141;BME280;50436;50.618;7.932;2022-10-17T12:54:15;97205.09;;;28.52;57.09
64141;BME280;50436;50.618;7.932;2022-10-17T12:57:16;97196.63;;;26.43;73.00
64141;BME280;50436;50.618;7.932;2022-10-17T13:00:11;97200.38;;;25.62;82.77
64141;BME280;50436;50.618;7.932;2022-10-17T13:03:21;97200.53;;;28.32;63.22
64141;BME280;50436;50.618;7.932;2022-10-17T13:06:16;97190.22;;;30.48;51.87
64141;BME280;50436;50.618;7.932;2022-10-17T13:09:16;97186.63;;;31.41;47.40
64141;BME280;50436;50.618;7.932;2022-10-17T13:12:05;97206.94;;;31.48;45.75
64141;BME280;50436;50.618;7.932;2022-10-17T13:14:55;97185.47;;;29.50;55.12
64141;BME280;50436;50.618;7.932;2022-10-17T13:17:41;97197.44;;;26.85;73.87
64141;BME280;50436;50.618;7.932;2022-10-17T13:20:29;97216.94;;;24.93;85.83
64141;BME280;50436;50.618;7.932;2022-10-17T13:23:23;97228.25;;;23.77;94.61
64141;BME280;50436;50.618;7.932;2022-10-17T13:26:18;97226.16;;;23.74;97.14
64141;BME280;50436;50.618;7.932;2022-10-17T13:29:13;97219.09;;;22.97;100.00
64141;BME280;50436;50.618;7.932;2022-10-17T13:32:03;97233.28;;;23.30;100.00
64141;BME280;50436;50.618;7.932;2022-10-17T13:37:54;97242.31;;;22.72;100.00
64141;BME280;50436;50.618;7.932;2022-10-17T13:40:43;97244.50;;;22.34;100.00
64141;BME280;50436;50.618;7.932;2022-10-17T13:43:30;97247.22;;;22.34;100.00
64141;BME280;50436;50.618;7.932;2022-10-17T13:46:25;97243.47;;;22.44;100.00
64141;BME280;50436;50.618;7.932;2022-10-17T13:49:17;97252.97;;;22.33;100.00
64141;BME280;50436;50.618;7.932;2022-10-17T13:52:06;97255.50;;;21.88;100.00
64141;BME280;50436;50.618;7.932;2022-10-17T13:54:52;97261.03;;;21.83;100.00
64141;BME280;50436;50.618;7.932;2022-10-17T13:57:38;97257.97;;;21.70;100.00
64141;BME280;50436;50.618;7.932;2022-10-17T14:00:24;97266.41;;;21.55;100.00
64141;BME280;50436;50.618;7.932;2022-10-17T14:03:10;97270.03;;;21.18;100.00
64141;BME280;50436;50.618;7.932;2022-10-17T14:06:19;97261.50;;;21.25;100.00
64141;BME280;50436;50.618;7.932;2022-10-17T14:09:07;97259.84;;;21.24;100.00
64141;BME280;50436;50.618;7.932;2022-10-17T14:14:52;97273.91;;;20.79;100.00
64141;BME280;50436;50.618;7.932;2022-10-17T14:17:38;97281.16;;;20.65;100.00
64141;BME280;50436;50.618;7.932;2022-10-17T14:20:25;97282.34;;;20.78;100.00
64141;BME280;50436;50.618;7.932;2022-10-17T14:26:19;97278.66;;;20.88;100.00
64141;BME280;50436;50.618;7.932;2022-10-17T14:29:20;97289.84;;;20.86;100.00
64141;BME280;50436;50.618;7.932;2022-10-17T14:32:12;97295.63;;;20.61;100.00
64141;BME280;50436;50.618;7.932;2022-10-17T14:35:03;97302.97;;;20.60;100.00
64141;BME280;50436;50.618;7.932;2022-10-17T14:37:51;97289.81;;;20.67;100.00
64141;BME280;50436;50.618;7.932;2022-10-17T14:40:49;97294.91;;;20.55;100.00
64141;BME280;50436;50.618;7.932;2022-10-17T14:43:35;97295.63;;;20.37;100.00
64141;BME280;50436;50.618;7.932;2022-10-17T14:46:21;97288.56;;;20.59;100.00
64141;BME280;50436;50.618;7.932;2022-10-17T14:49:15;97290.88;;;20.71;100.00
64141;BME280;50436;50.618;7.932;2022-10-17T14:52:24;97281.81;;;20.76;100.00
64141;BME280;50436;50.618;7.932;2022-10-17T14:55:25;97283.06;;;20.65;100.00
64141;BME280;50436;50.618;7.932;2022-10-17T14:58:15;97286.81;;;20.69;100.00
64141;BME280;50436;50.618;7.932;2022-10-17T15:01:02;97290.63;;;20.68;100.00
64141;BME280;50436;50.618;7.932;2022-10-17T15:03:47;97295.72;;;20.31;100.00
64141;BME280;50436;50.618;7.932;2022-10-17T15:06:33;97298.28;;;20.47;100.00
64141;BME280;50436;50.618;7.932;2022-10-17T15:09:19;97303.56;;;20.57;100.00
64141;BME280;50436;50.618;7.932;2022-10-17T15:12:12;97304.22;;;20.68;100.00
64141;BME280;50436;50.618;7.932;2022-10-17T15:14:59;97308.72;;;20.35;100.00
64141;BME280;50436;50.618;7.932;2022-10-17T15:17:45;97311.72;;;20.09;100.00
64141;BME280;50436;50.618;7.932;2022-10-17T15:20:32;97309.53;;;20.11;100.00
64141;BME280;50436;50.618;7.932;2022-10-17T15:23:18;97309.66;;;20.01;100.00
64141;BME280;50436;50.618;7.932;2022-10-17T15:26:15;97312.84;;;20.08;100.00
64141;BME280;50436;50.618;7.932;2022-10-17T15:29:02;97310.38;;;20.07;100.00
64141;BME280;50436;50.618;7.932;2022-10-17T15:31:48;97324.66;;;19.93;100.00
64141;BME280;50436;50.618;7.932;2022-10-17T15:34:34;97323.38;;;19.86;100.00
64141;BME280;50436;50.618;7.932;2022-10-17T15:37:22;97320.72;;;19.81;100.00
64141;BME280;50436;50.618;7.932;2022-10-17T15:40:26;97326.25;;;19.70;100.00
64141;BME280;50436;50.618;7.932;2022-10-17T15:43:13;97326.31;;;19.60;100.00
64141;BME280;50436;50.618;7.932;2022-10-17T15:45:59;97323.25;;;19.38;100.00
64141;BME280;50436;50.618;7.932;2022-10-17T15:48:45;97318.16;;;19.31;100.00
64141;BME280;50436;50.618;7.932;2022-10-17T15:51:31;97327.38;;;19.30;100.00
64141;BME280;50436;50.618;7.932;2022-10-17T15:54:17;97319.09;;;19.11;100.00
64141;BME280;50436;50.618;7.932;2022-10-17T15:57:03;97325.66;;;19.05;100.00
64141;BME280;50436;50.618;7.932;2022-10-17T15:59:51;97330.63;;;18.93;100.00
64141;BME280;50436;50.618;7.932;2022-10-17T16:02:39;97327.34;;;18.96;100.00
64141;BME280;50436;50.618;7.932;2022-10-17T16:05:25;97325.66;;;19.05;100.00
64141;BME280;50436;50.618;7.932;2022-10-17T16:08:12;97336.81;;;18.99;100.00
64141;BME280;50436;50.618;7.932;2022-10-17T16:10:57;97340.91;;;18.96;100.00
64141;BME280;50436;50.618;7.932;2022-10-17T16:13:51;97349.41;;;18.74;100.00
64141;BME280;50436;50.618;7.932;2022-10-17T16:16:38;97350.81;;;18.72;100.00
64141;BME280;50436;50.618;7.932;2022-10-17T16:19:25;97349.69;;;18.78;100.00